Lushi, China
Current Conditions -  °F | °C
As of 12:00 AM on Friday 31 Oct 2014 (Local Time) from ZLXY Reporting Station
Haze Haze  
Wind Chill: 54°   Ceiling: 5000
Heat Index: 54°   Visibility: 1.5mi
Dew Point: 50°   Wind: 2mph
Humidity: 88%   Direction: NA
Pressure: 30.12"   Gusts: NA
Location:  34.05°N, 111.03°E
Report Text: ZLXY 301600Z VRB01MPS 2500 BR OVC050 12/10 Q1020 NOSIG
Loading
Personal Weather Stations






























Interactive Weather Map
Tropical Storm Tracking
New forecast layout! Learn more

10-Day Weather Forecast

Advertisements
Track Severe Weather on mobile